Pagrindinis puslapis
METAR-TAF:

METAR-TAF

Oro uostai :

Tefė, Amazonė, Brazilija

platuma: 03-22S, ilguma: 064-41W, Aukštis: 47 m

Dabartinis oras

Ataskaita buvo paskelbta 20 minutes, ne 21:00 UTC
Vėjas 3 kt iš Pietų/Pietvakarių
Temperatūra 27°C
Drėgmė 89%
Slėgis 1008 hPa
Matomumas 10 km arba daugiau
Mažai debesys ne aukštis 2000 ft

METAR: SBTF 152100Z 20003KT 9999 FEW020 27/25 Q1008

Laikas: 17:20 (21:20 UTC)

Prognozė

Ataskaita buvo paskelbta 6 valandos ir 20 minutes, ne 15:00 UTC
Prognozė galioja nuo 15 metu 18 UTC su 16 metu 06 UTC
Vėjas 5 kt iš Rytų/Šiaurės Rytų
Matomumas 10 km arba daugiau
Išsisklaidę debesys ne aukštis 1700 ft
Mažai debesys ne aukštis 2500 ft, aukštai iškilę kamuoliniai debesys.
Tikimybė 40%
nuo 15 metu 21 UTC su 15 metu 22 UTC
Mažai debesys ne aukštis 2000 ft
Mažai debesys ne aukštis 3000 ft, Liūtiniai kamuoliniai debesys.
perkūnija

TAF: SBTF 151500Z 1518/1606 07005KT 9999 SCT017 FEW025TCU TX27/1518Z TN23/1606Z PROB40 1521/1522 TS FEW020 FEW030CB RMK PGU

Orai ataskaitas ir orų prognozės (METAR, TAF).

turimą stotys yra geltonos ir raudonos taškus žemėlapyje.

Perkelti pele per norėdami pamatyti stoties vardą.

Tada spustelėkite, norėdami matyti oro stebėjimo ir prognozės.

Norėdami pakeisti žemėlapį: spustelėkite ant žalios mygtukų su juodo kryžiaus žemyn,; žalią mygtuką su brūkšneliu, jei norite nutolinti; arba žalių rodyklių gretimoms žemėlapius.


METAR-TAF: